Time;durP1;ratioP1;P1;durP2;ratioP2;P2;SDS_P1;SDS_P2;PMS_P1;PMS_P2;Temp;Humidity;BMP_temperature;BMP_pressure;BME280_temperature;BME280_humidity;BME280_pressure;Samples;Min_cycle;Max_cycle;Signal;HPM_P1;HPM_P2
2023/06/08 00:02:19;;;;;;;3.67;2.85;;;18.10;12.50;;;;;;5089161;28;20392;-58
2023/06/08 00:04:45;;;;;;;3.97;2.58;;;18.00;12.90;;;;;;5102955;28;20101;-57
2023/06/08 00:07:14;;;;;;;4.63;2.80;;;17.90;13.30;;;;;;5087503;28;20020;-57
2023/06/08 00:09:40;;;;;;;3.15;2.40;;;17.80;13.40;;;;;;5108770;28;20094;-57
2023/06/08 00:12:06;;;;;;;3.20;2.65;;;17.70;13.80;;;;;;5086052;28;20028;-55
2023/06/08 00:14:34;;;;;;;3.63;2.70;;;17.60;14.10;;;;;;5108729;28;20051;-57
2023/06/08 00:17:03;;;;;;;3.38;2.58;;;17.50;14.60;;;;;;5088474;28;20036;-56
2023/06/08 00:19:36;;;;;;;3.13;2.47;;;17.40;14.80;;;;;;5088357;28;20427;-58
2023/06/08 00:22:04;;;;;;;4.65;2.83;;;17.40;15.10;;;;;;5108313;28;20345;-57
2023/06/08 00:24:31;;;;;;;3.10;2.47;;;17.30;15.40;;;;;;5108789;28;20035;-57
2023/06/08 00:26:56;;;;;;;3.95;2.38;;;17.20;15.60;;;;;;5088649;28;20032;-57
2023/06/08 00:29:22;;;;;;;5.05;2.45;;;17.10;15.80;;;;;;5105824;28;20099;-57
2023/06/08 00:31:48;;;;;;;2.92;2.47;;;17.00;16.00;;;;;;5088696;28;20036;-57
2023/06/08 00:34:14;;;;;;;4.68;2.40;;;16.90;16.50;;;;;;5087338;28;20377;-57
2023/06/08 00:36:39;;;;;;;5.95;2.65;;;16.80;16.80;;;;;;5107827;28;20085;-56
2023/06/08 00:39:05;;;;;;;4.35;2.85;;;16.70;17.20;;;;;;5086691;28;20032;-55
2023/06/08 00:41:31;;;;;;;3.47;2.53;;;16.60;17.50;;;;;;5107697;28;20498;-57
2023/06/08 00:43:56;;;;;;;3.70;2.78;;;16.60;17.80;;;;;;5088080;28;20100;-55
2023/06/08 00:46:25;;;;;;;4.53;2.55;;;16.40;17.90;;;;;;5111500;28;20032;-57
2023/06/08 00:48:52;;;;;;;3.50;2.60;;;16.40;18.10;;;;;;5090045;28;20024;-57
2023/06/08 00:51:19;;;;;;;3.90;2.75;;;16.30;18.40;;;;;;5111666;28;20027;-56
2023/06/08 00:53:46;;;;;;;4.28;3.00;;;16.20;18.80;;;;;;5090473;28;20031;-58
2023/06/08 00:56:16;;;;;;;4.15;2.60;;;16.10;19.00;;;;;;5111993;28;20020;-57
2023/06/08 00:58:46;;;;;;;3.30;2.58;;;16.00;19.30;;;;;;5073254;28;20029;-56
2023/06/08 01:01:19;;;;;;;3.75;2.55;;;15.90;19.50;;;;;;5111896;28;20020;-56
2023/06/08 01:03:45;;;;;;;4.15;3.25;;;15.90;19.70;;;;;;5074247;28;20676;-56
2023/06/08 01:06:12;;;;;;;5.50;2.70;;;15.80;19.90;;;;;;5108679;28;20016;-57
2023/06/08 01:09:01;;;;;;;3.75;2.72;;;15.70;20.00;;;;;;5091099;27;20506;-56
2023/06/08 01:11:46;;;;;;;3.15;2.38;;;15.70;20.60;;;;;;5111821;28;20024;-55
2023/06/08 01:14:17;;;;;;;4.30;2.97;;;15.60;21.10;;;;;;5081233;28;20028;-56
2023/06/08 01:16:50;;;;;;;3.95;2.60;;;15.50;21.30;;;;;;5112089;28;20288;-55
2023/06/08 01:19:28;;;;;;;6.43;3.00;;;15.40;21.60;;;;;;5082419;28;20494;-53
2023/06/08 01:22:05;;;;;;;4.30;2.80;;;15.40;21.80;;;;;;5103299;27;20024;-57
2023/06/08 01:24:35;;;;;;;5.82;2.95;;;15.30;22.40;;;;;;5108588;28;20032;-57
2023/06/08 01:27:06;;;;;;;3.55;2.65;;;15.30;22.50;;;;;;5070781;28;20107;-57
2023/06/08 01:29:33;;;;;;;3.92;3.10;;;15.20;22.70;;;;;;5086730;28;20101;-56
2023/06/08 01:32:01;;;;;;;3.83;3.03;;;15.10;23.10;;;;;;5091389;28;20020;-56
2023/06/08 01:34:27;;;;;;;4.50;2.67;;;15.10;23.30;;;;;;5108988;28;20039;-56
2023/06/08 01:37:13;;;;;;;3.10;2.55;;;15.00;23.50;;;;;;5091149;28;20032;-55
2023/06/08 01:39:48;;;;;;;4.05;2.90;;;15.00;23.90;;;;;;5088752;28;20447;-58
2023/06/08 01:42:19;;;;;;;4.78;2.70;;;14.90;23.90;;;;;;5071837;28;20070;-56
2023/06/08 01:45:08;;;;;;;4.43;2.67;;;14.80;24.20;;;;;;5111478;27;20391;-55
2023/06/08 01:47:39;;;;;;;4.60;2.88;;;14.80;24.10;;;;;;5073013;28;20090;-57
2023/06/08 01:50:06;;;;;;;4.25;3.13;;;14.80;24.50;;;;;;5090756;28;20116;-57
2023/06/08 01:52:32;;;;;;;3.38;2.63;;;14.70;24.30;;;;;;5108331;28;20028;-57
2023/06/08 01:54:57;;;;;;;3.80;2.97;;;14.70;24.60;;;;;;5110832;28;20039;-56
2023/06/08 01:57:23;;;;;;;4.03;3.15;;;14.60;25.00;;;;;;5092038;28;20032;-57
2023/06/08 01:59:48;;;;;;;4.32;3.00;;;14.60;24.90;;;;;;5110855;28;20475;-56
2023/06/08 02:02:14;;;;;;;5.05;2.90;;;14.60;25.50;;;;;;5088866;28;20024;-56
2023/06/08 02:04:39;;;;;;;4.47;2.97;;;14.50;25.40;;;;;;5092022;28;20035;-57
2023/06/08 02:07:05;;;;;;;4.20;3.00;;;14.50;25.30;;;;;;5102172;28;20016;-57
2023/06/08 02:09:31;;;;;;;4.65;3.13;;;14.50;25.30;;;;;;5110730;28;20016;-57
2023/06/08 02:12:04;;;;;;;3.63;2.90;;;14.50;24.90;;;;;;5090843;28;20094;-58
2023/06/08 02:14:30;;;;;;;5.15;2.90;;;14.50;25.00;;;;;;5069910;28;20082;-57
2023/06/08 02:16:55;;;;;;;5.88;3.38;;;14.40;25.20;;;;;;5109232;28;20060;-60
2023/06/08 02:19:22;;;;;;;4.85;3.42;;;14.40;25.20;;;;;;5088911;28;20640;-56
2023/06/08 02:21:49;;;;;;;3.50;2.88;;;14.40;25.10;;;;;;5110142;28;20430;-57
2023/06/08 02:24:17;;;;;;;4.28;2.85;;;14.30;25.00;;;;;;5087385;28;20702;-57
2023/06/08 02:26:43;;;;;;;4.70;3.38;;;14.30;25.50;;;;;;5110178;28;20023;-57
2023/06/08 02:29:08;;;;;;;4.22;3.17;;;14.30;25.50;;;;;;5088554;28;20105;-57
2023/06/08 02:31:34;;;;;;;5.13;3.10;;;14.30;25.30;;;;;;5109555;28;20038;-57
2023/06/08 02:33:59;;;;;;;6.80;3.35;;;14.30;25.40;;;;;;5088441;28;20028;-55
2023/06/08 02:36:31;;;;;;;5.93;3.50;;;14.30;25.50;;;;;;5109487;28;20509;-56
2023/06/08 02:39:00;;;;;;;4.78;2.90;;;14.30;26.00;;;;;;5083839;28;20064;-57
2023/06/08 02:41:26;;;;;;;5.00;3.22;;;14.30;26.00;;;;;;5108509;28;20487;-57
2023/06/08 02:43:51;;;;;;;4.63;3.20;;;14.30;25.80;;;;;;5088380;28;20028;-57
2023/06/08 02:46:17;;;;;;;4.15;2.92;;;14.20;26.00;;;;;;5109335;28;20096;-57
2023/06/08 02:48:42;;;;;;;5.10;3.00;;;14.20;26.40;;;;;;5088267;28;20031;-57
2023/06/08 02:51:08;;;;;;;6.95;3.53;;;14.20;26.50;;;;;;5109114;28;20023;-57
2023/06/08 02:53:33;;;;;;;4.78;3.42;;;14.20;27.00;;;;;;5088180;28;20046;-59
2023/06/08 02:55:59;;;;;;;5.15;3.40;;;14.20;27.00;;;;;;5108905;28;20521;-57
2023/06/08 02:58:24;;;;;;;4.53;3.22;;;14.10;27.10;;;;;;5088077;28;20032;-58
2023/06/08 03:00:53;;;;;;;7.35;3.53;;;14.10;27.50;;;;;;5109219;28;20057;-56
2023/06/08 03:03:23;;;;;;;3.67;3.25;;;14.20;27.40;;;;;;5087395;28;20492;-58
2023/06/08 03:05:49;;;;;;;5.28;3.22;;;14.20;27.20;;;;;;5092328;28;20024;-57
2023/06/08 03:08:15;;;;;;;4.63;3.55;;;14.20;27.00;;;;;;5096528;28;20035;-57
2023/06/08 03:10:40;;;;;;;6.75;3.47;;;14.20;27.00;;;;;;5108871;28;20028;-58
2023/06/08 03:13:06;;;;;;;5.47;3.40;;;14.30;26.90;;;;;;5096526;28;20503;-56
2023/06/08 03:15:31;;;;;;;4.20;3.08;;;14.30;27.00;;;;;;5089446;28;20075;-58
2023/06/08 03:17:57;;;;;;;5.45;3.33;;;14.30;27.20;;;;;;5099039;28;20061;-58
2023/06/08 03:20:22;;;;;;;5.38;3.30;;;14.40;27.10;;;;;;5089117;28;20032;-57
2023/06/08 03:22:48;;;;;;;6.95;3.50;;;14.40;27.20;;;;;;5100168;28;20442;-57
2023/06/08 03:25:17;;;;;;;6.05;3.45;;;14.40;27.30;;;;;;5089024;28;20550;-55
2023/06/08 03:27:43;;;;;;;4.63;3.08;;;14.50;27.20;;;;;;5101344;28;20036;-56
2023/06/08 03:30:10;;;;;;;5.68;3.28;;;14.60;27.40;;;;;;5089147;28;20055;-57
2023/06/08 03:32:36;;;;;;;5.90;3.20;;;14.60;27.40;;;;;;5102222;28;20081;-60
2023/06/08 03:35:01;;;;;;;4.55;3.00;;;14.70;27.50;;;;;;5088912;28;20032;-55
2023/06/08 03:37:27;;;;;;;11.88;4.00;;;14.90;27.40;;;;;;5106598;28;20112;-58
2023/06/08 03:39:52;;;;;;;3.95;3.15;;;15.40;27.00;;;;;;5109433;28;20711;-56
2023/06/08 03:42:18;;;;;;;8.27;3.85;;;15.90;26.40;;;;;;5087402;28;20040;-58
2023/06/08 03:44:43;;;;;;;3.65;2.97;;;16.40;25.80;;;;;;5089089;28;20071;-55
2023/06/08 03:47:12;;;;;;;7.03;3.45;;;16.90;25.00;;;;;;5106317;28;20479;-57
2023/06/08 03:49:37;;;;;;;5.95;3.50;;;17.40;24.60;;;;;;5109212;28;20092;-57
2023/06/08 03:52:04;;;;;;;5.70;3.80;;;17.80;24.40;;;;;;5087944;28;20488;-57
2023/06/08 03:54:30;;;;;;;4.47;3.13;;;18.10;24.30;;;;;;5108979;28;20567;-56
2023/06/08 03:56:56;;;;;;;6.72;3.33;;;18.30;23.90;;;;;;5089219;28;20064;-56
2023/06/08 03:59:21;;;;;;;5.63;3.60;;;18.60;23.40;;;;;;5107039;28;20564;-56
2023/06/08 04:01:47;;;;;;;6.38;3.67;;;19.00;22.80;;;;;;5089129;28;20028;-56
2023/06/08 04:04:12;;;;;;;4.63;3.30;;;19.50;22.30;;;;;;5085966;28;20031;-58
2023/06/08 04:06:40;;;;;;;5.75;3.35;;;20.10;21.80;;;;;;5105187;28;20032;-56
2023/06/08 04:09:06;;;;;;;5.38;3.28;;;20.30;21.60;;;;;;5087023;28;20412;-58
2023/06/08 04:11:32;;;;;;;4.57;3.33;;;20.50;21.40;;;;;;5108049;28;20020;-57
2023/06/08 04:13:57;;;;;;;6.25;3.85;;;21.00;20.60;;;;;;5087312;28;20035;-58
2023/06/08 04:16:23;;;;;;;4.20;3.60;;;21.50;20.00;;;;;;5108003;28;20076;-58
2023/06/08 04:18:48;;;;;;;6.90;3.20;;;22.00;19.10;;;;;;5088251;28;20032;-57
2023/06/08 04:21:15;;;;;;;7.68;3.40;;;22.40;18.00;;;;;;5111920;28;20161;-58
2023/06/08 04:23:41;;;;;;;3.25;2.88;;;22.80;17.50;;;;;;5090825;28;20016;-56
2023/06/08 04:26:07;;;;;;;7.15;3.95;;;22.80;15.60;;;;;;5111849;28;20526;-55
2023/06/08 04:28:33;;;;;;;4.93;3.63;;;22.70;11.60;;;;;;5090870;28;20048;-57
2023/06/08 04:31:01;;;;;;;5.55;3.67;;;22.20;15.00;;;;;;5112037;28;20088;-57
2023/06/08 04:33:30;;;;;;;6.03;3.78;;;21.90;14.80;;;;;;5090532;28;20103;-56
2023/06/08 04:35:56;;;;;;;4.53;3.38;;;22.30;14.70;;;;;;5111824;28;20027;-56
2023/06/08 04:38:22;;;;;;;6.15;3.47;;;22.40;14.50;;;;;;5090662;28;20199;-56
2023/06/08 04:40:53;;;;;;;3.55;3.10;;;23.10;13.90;;;;;;5111746;28;20337;-56
2023/06/08 04:43:21;;;;;;;4.68;3.72;;;24.00;13.10;;;;;;5090953;28;20035;-58
2023/06/08 04:45:55;;;;;;;4.50;3.58;;;24.50;11.30;;;;;;5091836;28;20042;-59
2023/06/08 04:48:21;;;;;;;4.95;2.60;;;25.10;11.40;;;;;;5093033;28;20124;-56
2023/06/08 04:50:46;;;;;;;6.53;3.78;;;25.70;10.40;;;;;;5092423;28;20093;-58
2023/06/08 04:53:12;;;;;;;5.57;3.72;;;26.20;6.80;;;;;;5109415;28;20539;-58
2023/06/08 04:55:39;;;;;;;5.53;3.65;;;26.40;7.60;;;;;;5092044;28;20039;-55
2023/06/08 04:58:05;;;;;;;4.55;3.38;;;26.60;7.10;;;;;;5109401;28;20118;-59
2023/06/08 05:00:30;;;;;;;4.00;3.20;;;27.10;6.90;;;;;;5092155;28;20162;-57
2023/06/08 05:02:56;;;;;;;4.03;3.63;;;27.60;4.10;;;;;;5109247;28;20032;-57
2023/06/08 05:05:21;;;;;;;6.05;3.58;;;27.60;4.10;;;;;;5094225;28;20513;-58
2023/06/08 05:07:47;;;;;;;4.43;3.35;;;28.00;4.20;;;;;;5096970;28;20332;-57
2023/06/08 05:10:12;;;;;;;3.90;3.38;;;28.30;1.60;;;;;;5111877;28;20030;-58
2023/06/08 05:12:38;;;;;;;5.55;3.95;;;28.50;3.30;;;;;;5095743;28;20142;-59
2023/06/08 05:15:04;;;;;;;4.53;3.38;;;28.60;2.50;;;;;;5111745;28;20063;-59
2023/06/08 05:17:29;;;;;;;4.50;3.92;;;28.80;2.10;;;;;;5094510;28;20156;-59
2023/06/08 05:19:55;;;;;;;6.20;3.35;;;29.00;1.60;;;;;;5089881;28;20317;-58
2023/06/08 05:22:20;;;;;;;4.40;3.22;;;29.30;1.10;;;;;;5098508;28;20035;-59
2023/06/08 05:24:46;;;;;;;4.78;3.30;;;30.10;1.00;;;;;;5093001;28;20024;-58
2023/06/08 05:27:11;;;;;;;5.20;3.25;;;30.00;1.00;;;;;;5109428;28;20487;-58
2023/06/08 05:29:37;;;;;;;3.58;3.28;;;30.40;1.00;;;;;;5087874;28;20040;-58
2023/06/08 05:32:03;;;;;;;5.28;3.65;;;31.10;1.00;;;;;;5109295;28;20033;-59
2023/06/08 05:34:28;;;;;;;5.35;3.28;;;31.40;1.00;;;;;;5088039;28;20495;-59
2023/06/08 05:36:54;;;;;;;3.97;3.35;;;31.60;1.00;;;;;;5109133;28;20035;-60
2023/06/08 05:39:20;;;;;;;5.93;3.65;;;31.60;1.00;;;;;;5088224;28;20539;-59
2023/06/08 05:41:45;;;;;;;4.50;3.10;;;32.00;1.00;;;;;;5100484;28;20099;-59
2023/06/08 05:44:11;;;;;;;4.60;3.13;;;32.40;1.00;;;;;;5106999;28;20027;-59
2023/06/08 05:46:36;;;;;;;4.60;3.13;;;32.30;1.00;;;;;;5089610;28;20028;-59
2023/06/08 05:49:02;;;;;;;7.03;3.30;;;33.00;1.00;;;;;;5107058;28;20437;-59
2023/06/08 05:51:27;;;;;;;3.90;3.10;;;33.10;1.00;;;;;;5089871;28;20028;-59
2023/06/08 05:53:53;;;;;;;4.13;3.20;;;33.60;1.00;;;;;;5107111;28;20117;-59
2023/06/08 05:56:18;;;;;;;3.75;2.85;;;34.00;1.00;;;;;;5089799;28;20068;-59
2023/06/08 05:58:44;;;;;;;5.15;3.70;;;34.30;1.00;;;;;;5106467;28;20024;-59
2023/06/08 06:01:09;;;;;;;3.85;3.45;;;34.00;1.00;;;;;;5109926;28;20028;-59
2023/06/08 06:03:35;;;;;;;4.38;3.60;;;33.50;1.00;;;;;;5093424;28;20028;-60
2023/06/08 06:06:01;;;;;;;4.60;3.67;;;33.00;1.00;;;;;;5092144;28;20020;-58
2023/06/08 06:08:26;;;;;;;5.13;3.63;;;32.70;1.00;;;;;;5106958;28;20523;-59
2023/06/08 06:10:52;;;;;;;5.70;3.47;;;32.50;1.00;;;;;;5109244;28;20023;-58
2023/06/08 06:13:17;;;;;;;5.90;3.58;;;32.80;1.00;;;;;;5090344;28;20236;-58
2023/06/08 06:15:43;;;;;;;3.53;3.22;;;33.30;1.00;;;;;;5109398;28;20031;-59
2023/06/08 06:18:08;;;;;;;5.50;3.17;;;33.20;1.00;;;;;;5088294;28;20085;-59
2023/06/08 06:20:34;;;;;;;4.55;3.90;;;32.90;1.00;;;;;;5109235;28;20024;-58
2023/06/08 06:22:59;;;;;;;6.32;3.97;;;32.50;1.00;;;;;;5087577;28;20028;-58
2023/06/08 06:25:25;;;;;;;4.75;3.97;;;32.10;1.00;;;;;;5109274;28;20027;-58
2023/06/08 06:27:50;;;;;;;3.65;3.20;;;32.00;1.00;;;;;;5092536;28;20089;-58
2023/06/08 06:30:16;;;;;;;3.50;3.17;;;32.60;1.00;;;;;;5086241;28;20416;-59
2023/06/08 06:32:41;;;;;;;4.55;3.35;;;33.60;1.00;;;;;;5108163;28;20032;-59
2023/06/08 06:35:07;;;;;;;4.78;3.97;;;34.00;1.00;;;;;;5086122;28;20071;-59
2023/06/08 06:37:34;;;;;;;5.13;3.40;;;33.70;1.00;;;;;;5106614;28;20029;-59
2023/06/08 06:40:03;;;;;;;5.57;4.00;;;34.00;1.00;;;;;;5086812;28;20508;-59
2023/06/08 06:42:30;;;;;;;4.97;3.78;;;34.20;1.00;;;;;;5107145;28;20057;-59
2023/06/08 06:44:55;;;;;;;4.35;3.13;;;34.10;1.00;;;;;;5087165;28;20025;-59
2023/06/08 06:47:21;;;;;;;4.65;3.50;;;33.40;1.00;;;;;;5107515;28;20028;-59
2023/06/08 06:49:46;;;;;;;5.07;3.60;;;32.30;1.00;;;;;;5087017;28;20032;-59
2023/06/08 06:52:12;;;;;;;5.88;3.58;;;31.60;1.00;;;;;;5107706;28;20104;-59
2023/06/08 06:54:37;;;;;;;12.68;3.63;;;32.20;1.00;;;;;;5086997;28;20039;-59
2023/06/08 06:57:03;;;;;;;4.72;3.30;;;33.10;1.00;;;;;;5107587;28;20023;-58
2023/06/08 06:59:29;;;;;;;5.05;3.78;;;32.80;1.00;;;;;;5086631;28;20036;-59
2023/06/08 07:01:55;;;;;;;5.40;4.05;;;33.10;1.00;;;;;;5107691;28;20098;-58
2023/06/08 07:04:21;;;;;;;4.75;3.25;;;33.40;1.00;;;;;;5086607;28;20516;-59
2023/06/08 07:06:47;;;;;;;6.05;3.47;;;34.30;1.00;;;;;;5062414;28;20459;-59
2023/06/08 07:09:13;;;;;;;3.92;3.45;;;34.80;1.00;;;;;;5105793;28;20059;-59
2023/06/08 07:11:39;;;;;;;3.83;3.50;;;35.30;1.00;;;;;;5089690;28;20086;-59
2023/06/08 07:14:05;;;;;;;7.03;3.42;;;36.20;1.00;;;;;;5107345;28;20505;-59
2023/06/08 07:16:30;;;;;;;4.45;3.72;;;35.10;1.00;;;;;;5089709;28;20508;-59
2023/06/08 07:18:56;;;;;;;3.55;3.22;;;35.00;1.00;;;;;;5106857;28;20122;-59
2023/06/08 07:21:23;;;;;;;3.83;3.47;;;35.50;1.00;;;;;;5089393;28;20450;-59
2023/06/08 07:23:50;;;;;;;4.57;3.30;;;35.80;1.00;;;;;;5106941;28;20051;-59
2023/06/08 07:26:16;;;;;;;3.65;3.35;;;35.50;1.00;;;;;;5109297;28;20035;-59
2023/06/08 07:28:41;;;;;;;4.75;3.67;;;35.60;1.00;;;;;;5091588;28;20040;-59
2023/06/08 07:31:07;;;;;;;4.35;3.55;;;35.00;1.00;;;;;;5108372;28;20031;-59
2023/06/08 07:33:32;;;;;;;5.80;3.55;;;34.80;1.00;;;;;;5092457;28;20124;-59
2023/06/08 07:35:58;;;;;;;3.08;2.78;;;35.10;1.00;;;;;;5108889;28;20499;-58
2023/06/08 07:38:23;;;;;;;6.07;3.75;;;36.10;1.00;;;;;;5091324;28;20031;-59
2023/06/08 07:40:49;;;;;;;4.05;3.65;;;35.60;1.00;;;;;;5109129;28;20480;-59
2023/06/08 07:43:14;;;;;;;6.90;3.50;;;35.00;1.00;;;;;;5089587;28;20020;-59
2023/06/08 07:45:40;;;;;;;4.32;3.90;;;34.70;1.00;;;;;;5109210;28;20159;-58
2023/06/08 07:48:06;;;;;;;3.83;3.05;;;34.70;1.00;;;;;;5088884;28;20055;-58
2023/06/08 07:50:31;;;;;;;4.78;3.58;;;34.70;1.00;;;;;;5109041;28;20705;-58
2023/06/08 07:52:56;;;;;;;6.80;3.33;;;35.00;1.00;;;;;;5088823;28;20047;-57
2023/06/08 07:55:22;;;;;;;6.00;3.15;;;34.70;1.00;;;;;;5113156;28;20032;-58
2023/06/08 07:57:48;;;;;;;3.92;3.53;;;34.20;1.00;;;;;;5093284;28;20585;-58
2023/06/08 08:00:14;;;;;;;3.97;3.58;;;34.40;1.00;;;;;;5091286;28;20485;-59
2023/06/08 08:02:40;;;;;;;5.80;3.75;;;34.80;1.00;;;;;;5112462;28;20051;-58
2023/06/08 08:05:08;;;;;;;3.97;3.45;;;34.40;1.00;;;;;;5092590;28;20093;-59
2023/06/08 08:07:34;;;;;;;3.72;3.42;;;34.40;1.00;;;;;;5112977;28;20066;-58
2023/06/08 08:09:59;;;;;;;4.68;3.53;;;34.40;1.00;;;;;;5091056;28;20029;-59
2023/06/08 08:12:25;;;;;;;5.25;3.20;;;35.10;1.00;;;;;;5112262;28;20028;-59
2023/06/08 08:14:50;;;;;;;4.05;3.30;;;34.80;1.00;;;;;;5091231;28;20028;-59
2023/06/08 08:17:16;;;;;;;4.75;3.58;;;34.20;1.00;;;;;;5111899;28;20059;-58
2023/06/08 08:19:41;;;;;;;3.60;3.28;;;34.60;1.00;;;;;;5091126;28;20028;-58
2023/06/08 08:22:07;;;;;;;4.35;3.63;;;34.30;1.00;;;;;;5111642;28;20152;-59
2023/06/08 08:24:32;;;;;;;4.50;3.60;;;33.70;1.00;;;;;;5090851;28;20044;-59
2023/06/08 08:26:58;;;;;;;4.22;3.67;;;33.90;1.00;;;;;;5111769;28;20509;-58
2023/06/08 08:29:24;;;;;;;4.63;3.50;;;33.50;1.00;;;;;;5090618;28;20102;-58
2023/06/08 08:31:50;;;;;;;5.00;3.65;;;33.60;1.00;;;;;;5111782;28;20300;-58
2023/06/08 08:34:15;;;;;;;4.10;3.15;;;33.20;1.00;;;;;;5101529;28;20093;-58
2023/06/08 08:36:41;;;;;;;6.93;3.72;;;33.20;1.00;;;;;;5092481;28;20115;-58
2023/06/08 08:39:07;;;;;;;4.90;3.20;;;32.70;1.00;;;;;;5109978;28;20038;-58
2023/06/08 08:41:33;;;;;;;4.22;3.40;;;32.10;1.00;;;;;;5092581;28;20034;-59
2023/06/08 08:44:05;;;;;;;4.03;3.53;;;31.80;1.00;;;;;;5093623;28;20024;-59
2023/06/08 08:46:37;;;;;;;5.72;3.60;;;31.50;1.00;;;;;;5111885;28;20479;-59
2023/06/08 08:49:08;;;;;;;4.07;3.67;;;31.40;1.00;;;;;;5086145;28;20024;-58
2023/06/08 08:51:38;;;;;;;4.75;4.13;;;31.30;1.00;;;;;;5071533;28;20036;-58
2023/06/08 08:54:04;;;;;;;3.60;3.30;;;31.10;1.00;;;;;;5093202;28;20028;-59
2023/06/08 08:56:36;;;;;;;4.07;3.13;;;31.00;1.00;;;;;;5111395;28;20387;-58
2023/06/08 08:59:04;;;;;;;5.72;3.70;;;31.20;1.00;;;;;;5085817;28;20032;-58
2023/06/08 09:01:32;;;;;;;3.83;3.47;;;31.00;1.00;;;;;;5111461;28;20111;-59
2023/06/08 09:04:01;;;;;;;4.13;3.70;;;31.00;1.00;;;;;;5089117;28;20039;-59
2023/06/08 09:06:30;;;;;;;4.38;3.78;;;31.00;1.00;;;;;;5106599;27;20016;-59
2023/06/08 09:08:55;;;;;;;3.72;3.38;;;30.80;1.00;;;;;;5089728;28;20117;-59
2023/06/08 09:11:21;;;;;;;4.32;3.92;;;30.80;1.00;;;;;;5110984;28;20035;-59
2023/06/08 09:13:47;;;;;;;7.15;3.40;;;30.40;1.00;;;;;;5090021;27;20438;-59
2023/06/08 09:16:16;;;;;;;4.20;3.22;;;30.30;1.00;;;;;;5110892;28;20028;-58
2023/06/08 09:18:42;;;;;;;5.15;3.50;;;30.70;1.00;;;;;;5089661;28;20028;-58
2023/06/08 09:21:26;;;;;;;6.35;3.63;;;30.80;1.00;;;;;;5110746;28;20030;-58
2023/06/08 09:24:22;;;;;;;4.65;3.55;;;30.90;1.00;;;;;;5083938;28;20115;-59
2023/06/08 09:26:56;;;;;;;3.83;3.22;;;31.20;1.00;;;;;;5070879;28;20024;-59
2023/06/08 09:29:35;;;;;;;4.90;2.97;;;31.70;1.00;;;;;;5087824;28;20039;-59
2023/06/08 09:32:03;;;;;;;5.57;3.70;;;31.70;1.00;;;;;;5111102;28;20500;-58
2023/06/08 09:34:35;;;;;;;3.70;3.20;;;31.70;1.00;;;;;;5109215;28;20039;-58
2023/06/08 09:37:07;;;;;;;6.85;3.42;;;31.50;1.00;;;;;;5070542;28;20028;-58
2023/06/08 09:39:40;;;;;;;5.90;3.60;;;31.50;1.00;;;;;;5070563;28;20032;-59
2023/06/08 09:42:06;;;;;;;4.32;3.67;;;31.50;1.00;;;;;;5108039;28;20035;-58
2023/06/08 09:44:32;;;;;;;5.43;3.53;;;31.60;1.00;;;;;;5111427;28;20020;-59
2023/06/08 09:46:58;;;;;;;5.47;3.42;;;31.40;1.00;;;;;;5091377;28;20537;-57
2023/06/08 09:49:23;;;;;;;4.30;3.75;;;31.00;1.00;;;;;;5088780;28;20020;-59
2023/06/08 09:51:51;;;;;;;5.95;3.75;;;30.70;1.00;;;;;;5110158;28;20040;-59
2023/06/08 09:54:19;;;;;;;5.75;4.22;;;30.80;1.00;;;;;;5088901;28;20028;-59
2023/06/08 09:56:55;;;;;;;5.53;3.17;;;30.50;1.00;;;;;;5096433;28;20043;-59
2023/06/08 09:59:28;;;;;;;4.93;3.88;;;30.50;1.00;;;;;;5070271;28;20058;-58
2023/06/08 10:01:57;;;;;;;8.90;3.80;;;30.10;1.00;;;;;;5081752;28;20445;-58
2023/06/08 10:04:36;;;;;;;5.47;4.20;;;30.00;1.00;;;;;;5110008;28;20039;-57
2023/06/08 10:07:09;;;;;;;4.60;3.70;;;29.80;1.00;;;;;;5083090;28;20058;-58
2023/06/08 10:09:37;;;;;;;6.22;4.03;;;29.80;1.00;;;;;;5070108;28;20028;-58
2023/06/08 10:12:03;;;;;;;6.35;3.80;;;29.90;1.00;;;;;;5093128;28;20036;-57
2023/06/08 10:14:30;;;;;;;7.03;3.85;;;29.80;1.00;;;;;;5109715;28;20038;-58
2023/06/08 10:16:56;;;;;;;5.07;3.50;;;29.80;1.00;;;;;;5088655;28;20491;-58
2023/06/08 10:19:23;;;;;;;5.22;4.07;;;29.90;1.00;;;;;;5109765;28;20503;-59
2023/06/08 10:21:51;;;;;;;6.32;4.03;;;29.70;1.00;;;;;;5088683;28;20058;-57
2023/06/08 10:24:19;;;;;;;5.85;4.47;;;29.80;1.00;;;;;;5109857;28;20055;-58
2023/06/08 10:26:46;;;;;;;4.68;3.90;;;29.50;1.00;;;;;;5088196;27;20104;-58
2023/06/08 10:29:11;;;;;;;11.73;4.22;;;29.30;1.00;;;;;;5109325;28;20126;-58
2023/06/08 10:31:41;;;;;;;7.13;3.30;;;29.30;1.00;;;;;;5099540;28;20114;-59
2023/06/08 10:34:09;;;;;;;5.70;3.97;;;29.60;1.30;;;;;;5089887;28;20032;-58
2023/06/08 10:36:42;;;;;;;5.30;3.80;;;29.70;1.00;;;;;;5107502;28;20072;-56
2023/06/08 10:39:10;;;;;;;5.22;4.22;;;29.70;1.00;;;;;;5069868;28;20420;-57
2023/06/08 10:41:54;;;;;;;5.40;3.97;;;29.50;1.60;;;;;;5107409;28;20031;-58
2023/06/08 10:44:31;;;;;;;6.53;4.22;;;29.50;1.40;;;;;;5086830;28;20107;-58
2023/06/08 10:47:01;;;;;;;6.25;4.07;;;29.40;1.10;;;;;;5109510;28;20369;-58
2023/06/08 10:49:37;;;;;;;5.75;4.35;;;29.30;1.30;;;;;;5087800;28;20114;-57
2023/06/08 10:52:09;;;;;;;5.88;3.35;;;29.00;1.60;;;;;;5067955;28;20040;-57
2023/06/08 10:54:52;;;;;;;3.70;3.38;;;29.00;1.60;;;;;;5069264;28;20036;-60
2023/06/08 10:57:40;;;;;;;5.60;3.67;;;29.10;1.40;;;;;;5071470;28;20047;-58
2023/06/08 11:00:29;;;;;;;4.57;3.55;;;29.30;2.60;;;;;;5109885;28;20510;-58
2023/06/08 11:03:06;;;;;;;6.70;3.75;;;29.10;1.60;;;;;;5094585;28;20499;-59
2023/06/08 11:05:33;;;;;;;5.55;3.60;;;28.90;1.40;;;;;;5097802;28;20027;-57
2023/06/08 11:08:00;;;;;;;4.57;3.45;;;28.90;1.20;;;;;;5105805;28;20055;-57
2023/06/08 11:10:25;;;;;;;5.00;3.85;;;28.90;1.10;;;;;;5109651;28;20396;-56
2023/06/08 11:12:51;;;;;;;3.83;3.20;;;29.10;1.30;;;;;;5094417;28;20023;-57
2023/06/08 11:15:18;;;;;;;4.88;3.47;;;29.00;1.00;;;;;;5109608;28;20552;-57
2023/06/08 11:17:50;;;;;;;6.82;4.05;;;29.00;1.00;;;;;;5093247;28;20040;-58
2023/06/08 11:20:15;;;;;;;7.18;3.97;;;28.90;1.80;;;;;;5107472;28;20112;-58
2023/06/08 11:22:41;;;;;;;7.47;3.67;;;28.90;1.00;;;;;;5102993;28;20522;-58
2023/06/08 11:25:08;;;;;;;4.72;3.60;;;28.70;1.00;;;;;;5106676;28;20024;-57
2023/06/08 11:27:41;;;;;;;5.35;3.63;;;28.80;1.00;;;;;;5107415;28;20012;-58
2023/06/08 11:30:07;;;;;;;6.40;3.83;;;28.70;1.00;;;;;;5092164;28;20036;-58
2023/06/08 11:32:35;;;;;;;4.47;3.42;;;28.70;1.30;;;;;;5109263;28;20011;-58
2023/06/08 11:35:04;;;;;;;4.82;4.32;;;28.60;1.40;;;;;;5091432;28;20054;-57
2023/06/08 11:37:33;;;;;;;8.07;3.97;;;28.50;1.40;;;;;;5109173;28;20055;-59
2023/06/08 11:39:59;;;;;;;5.93;3.67;;;28.50;1.20;;;;;;5091126;28;20024;-58
2023/06/08 11:42:25;;;;;;;6.13;3.80;;;28.60;1.60;;;;;;5108996;28;20016;-58
2023/06/08 11:44:50;;;;;;;6.13;4.10;;;28.60;1.30;;;;;;5090420;28;20509;-58
2023/06/08 11:47:17;;;;;;;5.43;3.30;;;28.50;1.00;;;;;;5109320;28;20020;-58
2023/06/08 11:49:53;;;;;;;5.63;3.50;;;28.50;1.00;;;;;;5089055;28;20541;-58
2023/06/08 11:52:20;;;;;;;6.70;3.67;;;28.50;1.00;;;;;;5109270;28;20491;-58
2023/06/08 11:54:50;;;;;;;6.50;4.05;;;28.50;1.00;;;;;;5089503;28;20035;-58
2023/06/08 11:57:15;;;;;;;7.15;3.72;;;28.60;1.30;;;;;;5109086;28;20011;-57
2023/06/08 11:59:42;;;;;;;5.00;3.72;;;28.60;1.40;;;;;;5088945;28;20135;-58
2023/06/08 12:02:10;;;;;;;7.60;3.80;;;28.60;1.00;;;;;;5108889;28;20458;-58
2023/06/08 12:04:36;;;;;;;6.40;3.80;;;28.70;1.00;;;;;;5084694;28;20029;-57
2023/06/08 12:07:12;;;;;;;5.28;3.97;;;28.50;1.00;;;;;;5085898;28;20062;-58
2023/06/08 12:09:38;;;;;;;5.47;3.83;;;28.30;1.40;;;;;;5106229;28;20023;-58
2023/06/08 12:12:11;;;;;;;5.93;4.38;;;28.20;1.20;;;;;;5108877;28;20024;-58
2023/06/08 12:14:42;;;;;;;6.55;3.97;;;28.20;1.30;;;;;;5087473;28;20077;-58
2023/06/08 12:17:08;;;;;;;5.20;3.28;;;28.30;1.40;;;;;;5106802;28;20187;-59
2023/06/08 12:19:34;;;;;;;4.05;3.47;;;28.40;1.40;;;;;;5081013;28;20055;-57
2023/06/08 12:21:59;;;;;;;3.90;3.50;;;28.50;1.50;;;;;;5105039;28;20032;-57
2023/06/08 12:24:25;;;;;;;3.92;3.53;;;28.70;1.10;;;;;;5084304;28;20029;-57
2023/06/08 12:26:51;;;;;;;4.88;3.55;;;28.70;1.30;;;;;;5081205;28;20368;-57
2023/06/08 12:29:18;;;;;;;4.60;3.95;;;28.60;1.00;;;;;;5067845;28;20600;-57
2023/06/08 12:31:43;;;;;;;4.38;3.70;;;28.40;1.30;;;;;;5095919;28;20404;-57
2023/06/08 12:34:09;;;;;;;5.15;3.95;;;28.20;1.70;;;;;;5085348;28;20024;-58
2023/06/08 12:36:34;;;;;;;4.70;3.85;;;28.10;1.50;;;;;;5103860;28;20381;-57
2023/06/08 12:39:00;;;;;;;6.30;3.90;;;28.10;1.60;;;;;;5070529;28;20036;-57
2023/06/08 12:41:26;;;;;;;4.03;3.63;;;28.00;1.70;;;;;;5098076;28;20028;-58
2023/06/08 12:43:52;;;;;;;4.72;3.70;;;28.10;1.60;;;;;;5075947;28;20050;-58
2023/06/08 12:46:21;;;;;;;6.45;3.97;;;28.10;1.50;;;;;;5084627;28;20037;-58
2023/06/08 12:48:47;;;;;;;3.97;3.58;;;28.10;1.00;;;;;;5088813;28;20052;-57
2023/06/08 12:51:16;;;;;;;4.68;3.65;;;28.20;1.20;;;;;;5098198;28;20028;-57
2023/06/08 12:53:44;;;;;;;4.10;3.55;;;28.40;1.00;;;;;;5093619;28;20107;-57
2023/06/08 12:56:09;;;;;;;4.47;3.80;;;28.60;1.00;;;;;;5096348;28;20062;-57